Time;durP1;ratioP1;P1;durP2;ratioP2;P2;SDS_P1;SDS_P2;PMS_P1;PMS_P2;Temp;Humidity;BMP_temperature;BMP_pressure;BME280_temperature;BME280_humidity;BME280_pressure;Samples;Min_cycle;Max_cycle;Signal;HPM_P1;HPM_P2
2023/09/27 00:02:21;;;;;;;2.95;2.03;;;;;;;;;;5051244;28;20199;-76
2023/09/27 00:04:51;;;;;;;2.33;2.08;;;;;;;;;;5050288;28;20294;-76
2023/09/27 00:07:18;;;;;;;2.60;2.17;;;;;;;;;;5052471;28;20200;-76
2023/09/27 00:09:45;;;;;;;3.03;2.63;;;;;;;;;;5049488;28;20214;-76
2023/09/27 00:12:12;;;;;;;2.45;2.25;;;;;;;;;;5055762;28;20203;-76
2023/09/27 00:14:39;;;;;;;2.65;2.45;;;;;;;;;;5048281;28;20196;-76
2023/09/27 00:17:06;;;;;;;2.80;2.50;;;;;;;;;;5048224;28;20202;-76
2023/09/27 00:19:33;;;;;;;5.00;2.67;;;;;;;;;;5055117;28;20191;-75
2023/09/27 00:22:02;;;;;;;2.58;2.15;;;;;;;;;;5048022;28;20199;-75
2023/09/27 00:24:29;;;;;;;4.35;2.42;;;;;;;;;;5051389;28;20195;-70
2023/09/27 00:26:56;;;;;;;2.78;2.30;;;;;;;;;;5049375;28;20233;-70
2023/09/27 00:29:23;;;;;;;4.32;2.42;;;;;;;;;;5045609;28;20249;-69
2023/09/27 00:31:50;;;;;;;2.40;2.20;;;;;;;;;;5051030;28;20204;-70
2023/09/27 00:34:17;;;;;;;2.45;2.25;;;;;;;;;;5057192;28;20200;-70
2023/09/27 00:36:45;;;;;;;2.53;2.22;;;;;;;;;;5050567;28;20203;-71
2023/09/27 00:39:13;;;;;;;2.50;2.30;;;;;;;;;;5052389;28;20192;-69
2023/09/27 00:41:40;;;;;;;2.65;2.42;;;;;;;;;;5055876;28;20196;-70
2023/09/27 00:44:07;;;;;;;3.35;2.17;;;;;;;;;;5056181;28;20206;-70
2023/09/27 00:46:34;;;;;;;3.35;2.30;;;;;;;;;;5053938;28;20200;-69
2023/09/27 00:49:02;;;;;;;2.58;2.35;;;;;;;;;;5058905;28;20195;-70
2023/09/27 00:51:30;;;;;;;2.75;2.55;;;;;;;;;;5056585;28;20207;-70
2023/09/27 00:53:58;;;;;;;3.17;2.75;;;;;;;;;;5053077;28;20195;-70
2023/09/27 00:56:27;;;;;;;2.65;2.45;;;;;;;;;;5055107;28;20495;-70
2023/09/27 00:58:54;;;;;;;2.72;2.50;;;;;;;;;;5064464;28;20207;-70
2023/09/27 01:01:22;;;;;;;2.80;2.58;;;;;;;;;;5056519;28;20214;-70
2023/09/27 01:03:49;;;;;;;2.90;2.70;;;;;;;;;;5051799;28;20207;-70
2023/09/27 01:06:16;;;;;;;3.33;2.85;;;;;;;;;;5055294;28;20282;-70
2023/09/27 01:08:43;;;;;;;3.97;3.10;;;;;;;;;;5052678;28;20199;-70
2023/09/27 01:11:10;;;;;;;3.28;2.97;;;;;;;;;;5052432;28;20218;-70
2023/09/27 01:13:39;;;;;;;2.75;2.55;;;;;;;;;;5053416;28;20213;-69
2023/09/27 01:16:07;;;;;;;3.92;2.92;;;;;;;;;;5054225;28;20221;-70
2023/09/27 01:18:34;;;;;;;2.88;2.67;;;;;;;;;;5055291;28;20219;-70
2023/09/27 01:21:02;;;;;;;3.38;2.88;;;;;;;;;;5058609;28;20197;-70
2023/09/27 01:23:30;;;;;;;4.82;3.08;;;;;;;;;;5049021;28;20209;-70
2023/09/27 01:25:58;;;;;;;4.88;3.10;;;;;;;;;;5050222;28;20235;-70
2023/09/27 01:28:26;;;;;;;3.17;2.88;;;;;;;;;;5048987;28;20203;-70
2023/09/27 01:30:53;;;;;;;3.28;2.88;;;;;;;;;;5058022;28;20218;-70
2023/09/27 01:33:20;;;;;;;3.25;2.95;;;;;;;;;;5060124;28;20210;-76
2023/09/27 01:35:47;;;;;;;3.58;3.28;;;;;;;;;;5059389;28;20210;-74
2023/09/27 01:38:15;;;;;;;3.60;3.28;;;;;;;;;;5055652;28;20196;-76
2023/09/27 01:40:44;;;;;;;3.88;3.22;;;;;;;;;;5059987;28;20200;-76
2023/09/27 01:43:11;;;;;;;3.22;3.03;;;;;;;;;;5058414;28;20202;-75
2023/09/27 01:45:39;;;;;;;4.47;2.90;;;;;;;;;;5051464;28;20196;-76
2023/09/27 01:48:07;;;;;;;3.58;3.28;;;;;;;;;;5053969;28;20207;-76
2023/09/27 01:50:35;;;;;;;5.30;3.03;;;;;;;;;;5052608;28;20199;-77
2023/09/27 01:53:03;;;;;;;4.15;3.65;;;;;;;;;;5058853;28;20206;-77
2023/09/27 01:55:30;;;;;;;4.68;3.60;;;;;;;;;;5058283;28;20194;-76
2023/09/27 01:57:59;;;;;;;3.50;3.20;;;;;;;;;;5054663;28;20239;-77
2023/09/27 02:00:26;;;;;;;3.60;3.30;;;;;;;;;;5061983;28;20188;-76
2023/09/27 02:02:56;;;;;;;3.88;3.22;;;;;;;;;;5054139;28;20287;-76
2023/09/27 02:05:24;;;;;;;3.35;3.15;;;;;;;;;;5062415;28;20203;-76
2023/09/27 02:07:51;;;;;;;4.30;3.30;;;;;;;;;;5047325;28;20204;-77
2023/09/27 02:10:18;;;;;;;3.28;3.00;;;;;;;;;;5051579;28;20203;-76
2023/09/27 02:12:45;;;;;;;3.35;3.10;;;;;;;;;;5057130;28;20290;-77
2023/09/27 02:15:14;;;;;;;3.63;3.10;;;;;;;;;;5055252;28;20203;-77
2023/09/27 02:17:42;;;;;;;4.20;3.25;;;;;;;;;;5052989;28;20198;-76
2023/09/27 02:20:11;;;;;;;4.00;3.70;;;;;;;;;;5048428;28;20195;-77
2023/09/27 02:22:40;;;;;;;4.05;3.30;;;;;;;;;;5049445;28;20200;-77
2023/09/27 02:25:09;;;;;;;3.30;3.00;;;;;;;;;;5049529;28;20236;-75
2023/09/27 02:27:36;;;;;;;4.63;3.47;;;;;;;;;;5052935;28;20248;-76
2023/09/27 02:30:05;;;;;;;3.80;3.50;;;;;;;;;;5055935;28;20207;-77
2023/09/27 02:32:34;;;;;;;3.45;3.20;;;;;;;;;;5053663;28;20244;-77
2023/09/27 02:35:02;;;;;;;3.80;3.50;;;;;;;;;;5054047;28;20192;-77
2023/09/27 02:37:30;;;;;;;3.78;3.42;;;;;;;;;;5050863;28;20207;-77
2023/09/27 02:39:57;;;;;;;3.40;3.10;;;;;;;;;;5051617;28;20203;-76
2023/09/27 02:42:24;;;;;;;3.50;3.20;;;;;;;;;;5052061;28;20195;-76
2023/09/27 02:44:51;;;;;;;3.78;3.33;;;;;;;;;;5048025;28;20209;-76
2023/09/27 02:47:18;;;;;;;3.58;3.22;;;;;;;;;;5050325;28;20238;-77
2023/09/27 02:49:47;;;;;;;3.50;3.30;;;;;;;;;;5051641;28;20203;-77
2023/09/27 02:52:14;;;;;;;3.70;3.40;;;;;;;;;;5051242;28;20650;-77
2023/09/27 02:54:41;;;;;;;3.78;3.40;;;;;;;;;;5051564;28;20200;-70
2023/09/27 02:57:08;;;;;;;3.13;2.92;;;;;;;;;;5051850;28;20209;-70
2023/09/27 02:59:36;;;;;;;3.78;3.47;;;;;;;;;;5054772;28;20196;-71
2023/09/27 03:02:04;;;;;;;3.83;3.53;;;;;;;;;;5049388;28;20200;-70
2023/09/27 03:04:32;;;;;;;6.05;3.70;;;;;;;;;;5051240;28;20215;-70
2023/09/27 03:07:00;;;;;;;5.07;3.90;;;;;;;;;;5051961;28;20208;-70
2023/09/27 03:09:27;;;;;;;4.22;3.80;;;;;;;;;;5048827;28;20202;-70
2023/09/27 03:11:55;;;;;;;4.28;3.88;;;;;;;;;;5051667;28;20226;-70
2023/09/27 03:14:22;;;;;;;4.50;3.97;;;;;;;;;;5049607;28;20191;-70
2023/09/27 03:16:49;;;;;;;4.60;3.78;;;;;;;;;;5046474;28;20214;-71
2023/09/27 03:19:16;;;;;;;5.15;4.10;;;;;;;;;;5051411;28;20191;-71
2023/09/27 03:21:43;;;;;;;4.85;4.22;;;;;;;;;;5049769;28;20191;-71
2023/09/27 03:24:12;;;;;;;4.03;3.58;;;;;;;;;;5050637;28;20202;-71
2023/09/27 03:26:39;;;;;;;3.67;3.38;;;;;;;;;;5051184;28;20303;-70
2023/09/27 03:29:06;;;;;;;4.03;3.70;;;;;;;;;;5051022;28;20196;-71
2023/09/27 03:31:34;;;;;;;4.18;3.80;;;;;;;;;;5049933;28;20222;-70
2023/09/27 03:34:01;;;;;;;3.60;3.30;;;;;;;;;;5051263;28;20618;-71
2023/09/27 03:36:29;;;;;;;3.63;3.33;;;;;;;;;;5053427;28;20209;-71
2023/09/27 03:38:56;;;;;;;4.00;3.20;;;;;;;;;;5055886;28;20207;-70
2023/09/27 03:41:25;;;;;;;3.90;3.25;;;;;;;;;;5056545;28;20200;-70
2023/09/27 03:43:52;;;;;;;3.58;3.22;;;;;;;;;;5053227;28;20207;-71
2023/09/27 03:46:20;;;;;;;3.40;3.10;;;;;;;;;;5048100;28;20203;-70
2023/09/27 03:48:47;;;;;;;3.40;3.10;;;;;;;;;;5051531;28;20191;-71
2023/09/27 03:51:14;;;;;;;3.30;3.00;;;;;;;;;;5053605;28;20222;-70
2023/09/27 03:53:41;;;;;;;3.45;3.15;;;;;;;;;;5056524;28;20195;-71
2023/09/27 03:56:09;;;;;;;3.58;3.28;;;;;;;;;;5053706;28;20202;-70
2023/09/27 03:58:37;;;;;;;3.13;2.90;;;;;;;;;;5057004;28;20204;-70
2023/09/27 04:01:04;;;;;;;2.97;2.67;;;;;;;;;;5047782;28;20222;-71
2023/09/27 04:03:34;;;;;;;3.22;2.95;;;;;;;;;;5050613;28;20192;-71
2023/09/27 04:06:01;;;;;;;4.75;3.28;;;;;;;;;;5053297;28;20214;-70
2023/09/27 04:08:29;;;;;;;4.88;3.80;;;;;;;;;;5054185;28;20203;-71
2023/09/27 04:10:56;;;;;;;4.38;3.72;;;;;;;;;;5055634;28;20216;-71
2023/09/27 04:13:23;;;;;;;4.15;3.42;;;;;;;;;;5053312;28;20199;-71
2023/09/27 04:15:51;;;;;;;3.88;3.58;;;;;;;;;;5048812;28;20293;-71
2023/09/27 04:18:19;;;;;;;5.43;4.20;;;;;;;;;;5044070;28;20195;-70
2023/09/27 04:20:46;;;;;;;5.53;5.07;;;;;;;;;;5048477;28;20200;-71
2023/09/27 04:23:19;;;;;;;5.43;4.93;;;;;;;;;;5049522;28;20202;-70
2023/09/27 04:25:47;;;;;;;7.18;6.30;;;;;;;;;;5047615;28;20289;-71
2023/09/27 04:28:16;;;;;;;6.43;5.82;;;;;;;;;;5048591;28;20208;-71
2023/09/27 04:30:49;;;;;;;6.57;5.97;;;;;;;;;;5052198;28;20230;-71
2023/09/27 04:33:18;;;;;;;5.78;5.28;;;;;;;;;;5054137;28;20298;-70
2023/09/27 04:35:51;;;;;;;5.07;4.68;;;;;;;;;;5049965;28;20206;-70
2023/09/27 04:38:19;;;;;;;5.10;4.55;;;;;;;;;;5053737;28;20257;-71
2023/09/27 04:40:47;;;;;;;4.57;4.28;;;;;;;;;;5049298;28;20203;-71
2023/09/27 04:43:15;;;;;;;5.25;4.75;;;;;;;;;;5057255;28;20217;-71
2023/09/27 04:45:43;;;;;;;4.18;3.88;;;;;;;;;;5053557;28;20204;-71
2023/09/27 04:48:10;;;;;;;5.40;4.90;;;;;;;;;;5047719;28;20203;-71
2023/09/27 04:50:39;;;;;;;6.30;5.33;;;;;;;;;;5044705;28;20277;-72
2023/09/27 04:53:07;;;;;;;18.10;5.57;;;;;;;;;;5041616;28;20198;-71
2023/09/27 04:55:37;;;;;;;5.43;4.93;;;;;;;;;;5057967;28;20249;-71
2023/09/27 04:58:10;;;;;;;5.88;5.38;;;;;;;;;;5055802;28;20241;-71
2023/09/27 05:00:37;;;;;;;8.07;6.00;;;;;;;;;;5056225;28;20287;-71
2023/09/27 05:03:05;;;;;;;5.97;5.47;;;;;;;;;;5051423;28;20211;-71
2023/09/27 05:05:32;;;;;;;44.55;6.25;;;;;;;;;;5048570;28;20204;-71
2023/09/27 05:08:01;;;;;;;4.72;4.30;;;;;;;;;;5045645;28;20202;-70
2023/09/27 05:10:29;;;;;;;5.18;4.50;;;;;;;;;;5051598;28;20215;-72
2023/09/27 05:12:56;;;;;;;6.13;4.10;;;;;;;;;;5046882;28;20204;-71
2023/09/27 05:15:24;;;;;;;5.13;3.80;;;;;;;;;;5053538;28;20215;-77
2023/09/27 05:17:54;;;;;;;14.45;4.72;;;;;;;;;;5050178;28;20204;-77
2023/09/27 05:20:22;;;;;;;16.70;5.28;;;;;;;;;;5054272;28;20206;-76
2023/09/27 05:22:51;;;;;;;10.82;4.47;;;;;;;;;;5052282;28;20207;-77
2023/09/27 05:25:20;;;;;;;4.72;4.43;;;;;;;;;;5049557;28;20240;-76
2023/09/27 05:27:47;;;;;;;4.28;3.88;;;;;;;;;;5053642;28;20207;-76
2023/09/27 05:30:19;;;;;;;4.03;3.72;;;;;;;;;;5046301;28;20214;-77
2023/09/27 05:32:47;;;;;;;8.10;3.83;;;;;;;;;;5047146;28;20203;-75
2023/09/27 05:35:14;;;;;;;4.82;3.47;;;;;;;;;;5048610;28;20216;-77
2023/09/27 05:37:43;;;;;;;7.00;3.90;;;;;;;;;;5050080;28;20200;-76
2023/09/27 05:40:11;;;;;;;4.38;3.97;;;;;;;;;;5050824;28;20211;-76
2023/09/27 05:42:40;;;;;;;4.20;3.90;;;;;;;;;;5045039;28;20203;-76
2023/09/27 05:45:11;;;;;;;4.80;3.70;;;;;;;;;;5054239;28;20202;-76
2023/09/27 05:47:39;;;;;;;4.17;3.63;;;;;;;;;;5051115;28;20284;-76
2023/09/27 05:50:08;;;;;;;4.03;3.72;;;;;;;;;;5050353;28;20210;-74
2023/09/27 05:52:35;;;;;;;4.10;3.80;;;;;;;;;;5035394;28;20250;-77
2023/09/27 05:55:05;;;;;;;4.47;4.07;;;;;;;;;;5040438;28;20206;-76
2023/09/27 05:57:35;;;;;;;4.10;3.80;;;;;;;;;;5047058;28;20245;-76
2023/09/27 06:00:15;;;;;;;5.10;4.10;;;;;;;;;;5049852;28;20208;-76
2023/09/27 06:02:43;;;;;;;3.87;3.50;;;;;;;;;;5055892;28;20198;-76
2023/09/27 06:05:11;;;;;;;3.50;3.30;;;;;;;;;;5050349;28;20222;-77
2023/09/27 06:07:39;;;;;;;4.30;4.00;;;;;;;;;;5049140;28;20204;-77
2023/09/27 06:10:08;;;;;;;3.93;3.63;;;;;;;;;;5051204;28;20230;-76
2023/09/27 06:12:35;;;;;;;4.33;3.93;;;;;;;;;;5054851;28;20230;-76
2023/09/27 06:15:04;;;;;;;3.90;3.60;;;;;;;;;;5049012;28;20207;-76
2023/09/27 06:17:33;;;;;;;4.10;3.80;;;;;;;;;;5053466;28;20195;-77
2023/09/27 06:20:00;;;;;;;3.57;3.37;;;;;;;;;;5060618;28;20235;-76
2023/09/27 06:22:27;;;;;;;5.00;4.60;;;;;;;;;;5049578;28;20206;-76
2023/09/27 06:24:55;;;;;;;4.63;4.33;;;;;;;;;;5050035;28;20300;-75
2023/09/27 06:27:23;;;;;;;4.43;4.10;;;;;;;;;;5048300;28;20210;-75
2023/09/27 06:29:50;;;;;;;4.90;4.50;;;;;;;;;;5051926;28;20211;-76
2023/09/27 06:32:19;;;;;;;4.23;3.93;;;;;;;;;;5055436;28;20216;-76
2023/09/27 06:34:46;;;;;;;3.83;3.53;;;;;;;;;;5051000;28;20200;-76
2023/09/27 06:37:13;;;;;;;3.77;3.50;;;;;;;;;;5053831;28;20200;-75
2023/09/27 06:39:42;;;;;;;3.75;3.40;;;;;;;;;;5067984;28;20203;-76
2023/09/27 06:42:09;;;;;;;3.57;3.37;;;;;;;;;;5061431;28;20290;-76
2023/09/27 06:44:37;;;;;;;3.07;2.87;;;;;;;;;;5051692;28;20253;-75
2023/09/27 06:47:04;;;;;;;3.27;3.00;;;;;;;;;;5049605;28;20242;-76
2023/09/27 06:49:33;;;;;;;3.53;3.33;;;;;;;;;;5053736;28;20207;-74
2023/09/27 06:52:00;;;;;;;4.28;3.88;;;;;;;;;;5061551;28;20218;-76
2023/09/27 06:54:27;;;;;;;3.30;3.10;;;;;;;;;;5071804;28;20260;-76
2023/09/27 06:56:54;;;;;;;3.45;3.25;;;;;;;;;;5063233;28;20203;-76
2023/09/27 06:59:22;;;;;;;3.50;3.30;;;;;;;;;;5052655;28;20208;-76
2023/09/27 07:01:50;;;;;;;2.87;2.67;;;;;;;;;;5052882;28;20229;-76
2023/09/27 07:04:17;;;;;;;2.72;2.53;;;;;;;;;;5052669;28;20231;-76
2023/09/27 07:06:46;;;;;;;2.17;2.07;;;;;;;;;;5052516;28;20265;-75
2023/09/27 07:09:16;;;;;;;2.70;2.60;;;;;;;;;;5049718;28;20209;-76
2023/09/27 07:11:44;;;;;;;2.63;2.17;;;;;;;;;;5044598;28;20220;-76
2023/09/27 07:14:12;;;;;;;2.13;2.03;;;;;;;;;;5048596;28;20200;-76
2023/09/27 07:16:39;;;;;;;1.90;1.80;;;;;;;;;;5052533;28;20204;-76
2023/09/27 07:19:09;;;;;;;1.60;1.50;;;;;;;;;;5043261;28;20350;-75
2023/09/27 07:21:36;;;;;;;1.70;1.60;;;;;;;;;;5049416;28;20222;-75
2023/09/27 07:24:09;;;;;;;2.03;1.88;;;;;;;;;;5052096;28;20203;-76
2023/09/27 07:26:37;;;;;;;1.90;1.80;;;;;;;;;;5050978;28;20227;-76
2023/09/27 07:29:05;;;;;;;1.95;1.85;;;;;;;;;;5049647;28;20203;-76
2023/09/27 07:31:32;;;;;;;2.22;2.13;;;;;;;;;;5050575;28;20265;-74
2023/09/27 07:34:00;;;;;;;1.85;1.75;;;;;;;;;;5047191;28;20206;-75
2023/09/27 07:36:27;;;;;;;1.95;1.85;;;;;;;;;;5044752;28;20203;-76
2023/09/27 07:38:57;;;;;;;1.73;1.63;;;;;;;;;;5044931;28;20204;-76
2023/09/27 07:41:26;;;;;;;2.25;2.03;;;;;;;;;;5046402;28;20215;-75
2023/09/27 07:43:54;;;;;;;2.30;2.20;;;;;;;;;;5054647;28;20253;-76
2023/09/27 07:46:21;;;;;;;2.92;2.50;;;;;;;;;;5054008;28;20199;-75
2023/09/27 07:48:49;;;;;;;4.10;2.70;;;;;;;;;;5056355;28;20261;-75
2023/09/27 07:51:18;;;;;;;3.10;2.90;;;;;;;;;;5058013;28;20203;-75
2023/09/27 07:53:47;;;;;;;2.83;2.70;;;;;;;;;;5053576;28;20200;-75
2023/09/27 07:56:20;;;;;;;3.05;2.75;;;;;;;;;;5052983;28;20229;-75
2023/09/27 07:58:51;;;;;;;2.83;2.63;;;;;;;;;;5053288;28;20207;-75
2023/09/27 08:01:20;;;;;;;3.22;3.00;;;;;;;;;;5052918;28;20211;-75
2023/09/27 08:03:48;;;;;;;2.85;2.60;;;;;;;;;;5056034;28;20235;-75
2023/09/27 08:06:17;;;;;;;3.00;2.70;;;;;;;;;;5054671;28;20195;-74
2023/09/27 08:08:44;;;;;;;2.95;2.65;;;;;;;;;;5053063;28;20195;-74
2023/09/27 08:11:13;;;;;;;3.85;2.33;;;;;;;;;;5056348;28;20199;-75
2023/09/27 08:13:42;;;;;;;2.70;2.50;;;;;;;;;;5053230;28;20199;-75
2023/09/27 08:16:10;;;;;;;2.38;2.28;;;;;;;;;;5056260;28;20284;-75
2023/09/27 08:18:38;;;;;;;3.47;2.63;;;;;;;;;;5057289;28;20234;-75
2023/09/27 08:21:05;;;;;;;2.25;2.15;;;;;;;;;;5053682;28;20215;-75
2023/09/27 08:23:33;;;;;;;2.28;2.17;;;;;;;;;;5057232;28;20246;-75
2023/09/27 08:26:00;;;;;;;2.30;2.20;;;;;;;;;;5059932;28;20297;-75
2023/09/27 08:28:27;;;;;;;2.40;2.30;;;;;;;;;;5052751;28;20200;-74
2023/09/27 08:30:58;;;;;;;2.72;2.53;;;;;;;;;;5054857;28;20253;-75
2023/09/27 08:33:27;;;;;;;2.35;2.25;;;;;;;;;;5056115;28;20254;-75
2023/09/27 08:35:55;;;;;;;2.78;2.40;;;;;;;;;;5056571;28;20230;-75
2023/09/27 08:38:22;;;;;;;2.88;2.50;;;;;;;;;;5062775;28;20234;-75
2023/09/27 08:40:52;;;;;;;2.60;2.40;;;;;;;;;;5058526;28;20200;-74
2023/09/27 08:43:21;;;;;;;2.45;2.35;;;;;;;;;;5056308;28;20207;-75
2023/09/27 08:45:50;;;;;;;2.70;2.50;;;;;;;;;;5059264;28;20203;-75
2023/09/27 08:48:20;;;;;;;2.60;2.40;;;;;;;;;;5056865;28;20203;-74
2023/09/27 08:50:50;;;;;;;3.00;2.50;;;;;;;;;;5051820;28;20199;-73
2023/09/27 08:53:17;;;;;;;2.25;2.05;;;;;;;;;;5051914;28;20223;-75
2023/09/27 08:55:45;;;;;;;2.30;2.20;;;;;;;;;;5051813;28;20200;-74
2023/09/27 08:58:13;;;;;;;2.60;2.40;;;;;;;;;;5060028;28;20207;-74
2023/09/27 09:00:41;;;;;;;2.63;2.35;;;;;;;;;;5063971;28;20270;-74
2023/09/27 09:03:10;;;;;;;2.50;2.30;;;;;;;;;;5053632;28;20282;-74
2023/09/27 09:05:37;;;;;;;2.00;1.90;;;;;;;;;;5052142;28;20338;-69
2023/09/27 09:08:07;;;;;;;2.00;1.90;;;;;;;;;;5048236;28;20257;-69
2023/09/27 09:10:34;;;;;;;1.77;1.67;;;;;;;;;;5060082;28;20203;-68
2023/09/27 09:13:03;;;;;;;1.67;1.58;;;;;;;;;;5055393;28;20214;-68
2023/09/27 09:15:35;;;;;;;2.38;1.90;;;;;;;;;;5054537;28;20195;-69
2023/09/27 09:18:06;;;;;;;1.90;1.58;;;;;;;;;;5053758;28;20288;-69
2023/09/27 09:20:48;;;;;;;2.08;1.98;;;;;;;;;;5059889;28;20230;-68
2023/09/27 09:23:30;;;;;;;1.60;1.50;;;;;;;;;;5058735;28;20245;-69
2023/09/27 09:25:58;;;;;;;1.55;1.45;;;;;;;;;;5053169;28;20306;-68
2023/09/27 09:28:26;;;;;;;1.60;1.50;;;;;;;;;;5052344;28;20223;-69
2023/09/27 09:30:54;;;;;;;1.70;1.58;;;;;;;;;;5052172;28;20207;-68
2023/09/27 09:33:22;;;;;;;1.77;1.67;;;;;;;;;;5056176;28;20208;-68
2023/09/27 09:35:50;;;;;;;2.50;2.30;;;;;;;;;;5064272;28;20206;-68
2023/09/27 09:38:24;;;;;;;2.33;2.10;;;;;;;;;;5057883;28;20203;-69
2023/09/27 09:40:56;;;;;;;2.30;2.20;;;;;;;;;;5060403;28;20200;-68
2023/09/27 09:43:30;;;;;;;3.17;2.58;;;;;;;;;;5060976;28;20202;-68
2023/09/27 09:45:57;;;;;;;3.33;3.00;;;;;;;;;;5057633;28;20242;-68
2023/09/27 09:48:25;;;;;;;4.78;2.70;;;;;;;;;;5058165;28;20203;-68
2023/09/27 09:50:54;;;;;;;2.90;2.70;;;;;;;;;;5051757;28;20255;-68
2023/09/27 09:53:21;;;;;;;2.70;2.50;;;;;;;;;;5054130;28;20207;-68
2023/09/27 09:55:50;;;;;;;4.90;2.50;;;;;;;;;;5063547;28;20191;-68
2023/09/27 09:58:24;;;;;;;2.45;2.25;;;;;;;;;;5049193;28;20231;-67
2023/09/27 10:00:54;;;;;;;2.45;2.13;;;;;;;;;;5055884;28;20203;-68
2023/09/27 10:03:22;;;;;;;4.32;2.10;;;;;;;;;;5049143;28;20191;-68
2023/09/27 10:05:51;;;;;;;4.50;2.20;;;;;;;;;;5060017;28;20207;-68
2023/09/27 10:08:19;;;;;;;3.90;2.50;;;;;;;;;;5053294;28;20211;-67
2023/09/27 10:10:47;;;;;;;2.50;2.30;;;;;;;;;;5060000;28;20207;-67
2023/09/27 10:13:18;;;;;;;3.63;2.47;;;;;;;;;;5052967;28;20223;-67
2023/09/27 10:15:47;;;;;;;2.58;2.10;;;;;;;;;;5045794;28;20200;-73
2023/09/27 10:18:29;;;;;;;4.25;2.00;;;;;;;;;;5054477;28;20199;-73
2023/09/27 10:21:03;;;;;;;3.00;1.98;;;;;;;;;;5050032;28;20211;-73
2023/09/27 10:23:37;;;;;;;1.90;1.80;;;;;;;;;;5057616;28;20195;-73
2023/09/27 10:26:20;;;;;;;2.55;2.03;;;;;;;;;;5048363;28;20223;-72
2023/09/27 10:29:03;;;;;;;2.63;2.10;;;;;;;;;;5044134;28;20286;-73
2023/09/27 10:31:32;;;;;;;2.55;2.03;;;;;;;;;;5040271;28;20497;-72
2023/09/27 10:33:59;;;;;;;2.08;1.80;;;;;;;;;;5050008;28;20245;-72
2023/09/27 10:36:33;;;;;;;3.63;1.90;;;;;;;;;;5049016;28;20263;-72
2023/09/27 10:39:06;;;;;;;1.80;1.70;;;;;;;;;;5049201;28;20191;-72
2023/09/27 10:41:46;;;;;;;2.00;1.83;;;;;;;;;;5054871;28;20199;-73
2023/09/27 10:44:13;;;;;;;3.33;2.00;;;;;;;;;;5050228;28;20254;-72
2023/09/27 10:46:45;;;;;;;1.88;1.77;;;;;;;;;;5052125;28;20283;-72
2023/09/27 10:49:15;;;;;;;2.65;2.35;;;;;;;;;;5060395;28;20257;-72
2023/09/27 10:51:44;;;;;;;3.08;1.67;;;;;;;;;;5047230;28;20230;-73
2023/09/27 10:54:12;;;;;;;2.30;2.10;;;;;;;;;;5049182;28;20211;-71
2023/09/27 10:56:46;;;;;;;1.85;1.75;;;;;;;;;;5062345;28;20211;-72
2023/09/27 10:59:14;;;;;;;2.65;1.80;;;;;;;;;;5048109;28;20196;-72
2023/09/27 11:01:47;;;;;;;2.28;1.70;;;;;;;;;;5048880;28;20195;-72
2023/09/27 11:04:15;;;;;;;2.35;2.10;;;;;;;;;;5048937;28;20199;-71
2023/09/27 11:06:46;;;;;;;1.85;1.67;;;;;;;;;;5049641;28;20218;-72
2023/09/27 11:09:13;;;;;;;1.70;1.60;;;;;;;;;;5054167;28;20211;-72
2023/09/27 11:11:43;;;;;;;1.80;1.70;;;;;;;;;;5049568;28;20207;-72
2023/09/27 11:14:11;;;;;;;2.03;1.80;;;;;;;;;;5043802;28;20306;-72
2023/09/27 11:16:38;;;;;;;1.75;1.60;;;;;;;;;;5046818;28;20211;-72
2023/09/27 11:19:07;;;;;;;1.60;1.50;;;;;;;;;;5050648;28;20207;-72
2023/09/27 11:21:34;;;;;;;2.33;1.58;;;;;;;;;;5051354;28;20207;-72
2023/09/27 11:24:03;;;;;;;2.00;1.90;;;;;;;;;;5046165;28;20215;-66
2023/09/27 11:26:31;;;;;;;2.00;1.85;;;;;;;;;;5048562;28;20307;-66
2023/09/27 11:28:59;;;;;;;2.30;1.90;;;;;;;;;;5050961;28;20229;-66
2023/09/27 11:31:27;;;;;;;2.10;1.90;;;;;;;;;;5056784;28;20282;-66
2023/09/27 11:33:54;;;;;;;2.25;1.88;;;;;;;;;;5044113;28;20220;-66
2023/09/27 11:36:22;;;;;;;2.08;1.67;;;;;;;;;;5044564;28;20199;-66
2023/09/27 11:38:50;;;;;;;1.88;1.75;;;;;;;;;;5045319;28;20199;-66
2023/09/27 11:41:19;;;;;;;5.43;2.03;;;;;;;;;;5048852;28;20203;-66
2023/09/27 11:43:47;;;;;;;3.35;1.90;;;;;;;;;;5049673;28;20199;-66
2023/09/27 11:46:27;;;;;;;3.63;1.80;;;;;;;;;;5045658;28;20196;-65
2023/09/27 11:48:54;;;;;;;1.83;1.73;;;;;;;;;;5045364;28;20333;-68
2023/09/27 11:51:23;;;;;;;4.53;2.00;;;;;;;;;;5043802;28;20204;-67
2023/09/27 11:53:50;;;;;;;1.77;1.67;;;;;;;;;;5044686;28;20211;-66
2023/09/27 11:56:17;;;;;;;2.10;1.90;;;;;;;;;;5045666;28;20202;-66
2023/09/27 11:58:45;;;;;;;3.83;1.90;;;;;;;;;;5044996;28;20206;-66
2023/09/27 12:01:12;;;;;;;1.52;1.42;;;;;;;;;;5048882;28;20199;-66
2023/09/27 12:03:39;;;;;;;2.67;1.77;;;;;;;;;;5044079;28;20195;-66
2023/09/27 12:06:07;;;;;;;4.70;1.92;;;;;;;;;;5047447;28;20207;-66
2023/09/27 12:08:36;;;;;;;1.98;1.80;;;;;;;;;;5049534;28;20263;-67
2023/09/27 12:11:03;;;;;;;3.00;1.80;;;;;;;;;;5044616;28;20203;-66
2023/09/27 12:13:31;;;;;;;2.33;1.73;;;;;;;;;;5045197;28;20301;-66
2023/09/27 12:15:58;;;;;;;2.10;2.00;;;;;;;;;;5048681;28;20199;-65
2023/09/27 12:18:25;;;;;;;3.75;1.90;;;;;;;;;;5041502;28;20195;-66
2023/09/27 12:20:52;;;;;;;2.45;1.70;;;;;;;;;;5040999;28;20205;-66
2023/09/27 12:23:20;;;;;;;2.83;1.80;;;;;;;;;;5047158;28;20202;-66
2023/09/27 12:25:48;;;;;;;1.70;1.60;;;;;;;;;;5050054;28;20239;-65
2023/09/27 12:28:16;;;;;;;1.92;1.83;;;;;;;;;;5045339;28;20270;-65
2023/09/27 12:30:43;;;;;;;2.08;1.80;;;;;;;;;;5046290;28;20204;-66
2023/09/27 12:33:12;;;;;;;1.90;1.80;;;;;;;;;;5049224;28;20207;-67
2023/09/27 12:35:39;;;;;;;3.17;1.80;;;;;;;;;;5049972;28;20286;-66
2023/09/27 12:38:07;;;;;;;1.70;1.60;;;;;;;;;;5053615;28;20207;-66
2023/09/27 12:40:34;;;;;;;2.90;1.77;;;;;;;;;;5052454;28;20210;-65
2023/09/27 12:43:03;;;;;;;2.00;1.80;;;;;;;;;;5054279;28;20192;-65
2023/09/27 12:45:30;;;;;;;2.10;1.60;;;;;;;;;;5050919;28;20204;-65
2023/09/27 12:47:57;;;;;;;2.25;1.70;;;;;;;;;;5049042;28;20211;-65
2023/09/27 12:50:26;;;;;;;1.83;1.73;;;;;;;;;;5050731;28;20203;-66
2023/09/27 12:52:54;;;;;;;3.53;1.95;;;;;;;;;;5050539;28;20208;-65
2023/09/27 12:55:21;;;;;;;2.70;1.88;;;;;;;;;;5048318;28;20204;-66
2023/09/27 12:57:49;;;;;;;1.95;1.85;;;;;;;;;;5049896;28;20199;-65
2023/09/27 13:00:18;;;;;;;2.33;1.90;;;;;;;;;;5055800;28;20195;-65
2023/09/27 13:02:46;;;;;;;2.13;1.95;;;;;;;;;;5052098;28;20203;-66
2023/09/27 13:05:13;;;;;;;4.32;1.98;;;;;;;;;;5053373;28;20196;-66
2023/09/27 13:07:40;;;;;;;2.58;1.92;;;;;;;;;;5048835;28;20203;-65
2023/09/27 13:10:07;;;;;;;3.35;1.95;;;;;;;;;;5052628;28;20528;-66
2023/09/27 13:12:35;;;;;;;2.30;1.90;;;;;;;;;;5050581;28;20258;-65
2023/09/27 13:15:02;;;;;;;2.55;1.70;;;;;;;;;;5048423;28;20230;-65
2023/09/27 13:17:31;;;;;;;3.75;1.88;;;;;;;;;;5050970;28;20208;-65
2023/09/27 13:19:58;;;;;;;2.28;1.90;;;;;;;;;;5053171;28;20223;-65
2023/09/27 13:22:25;;;;;;;4.68;2.03;;;;;;;;;;5054183;28;20287;-65
2023/09/27 13:24:52;;;;;;;2.67;2.05;;;;;;;;;;5049372;28;20195;-66
2023/09/27 13:27:20;;;;;;;2.33;2.00;;;;;;;;;;5046369;28;20273;-65
2023/09/27 13:29:47;;;;;;;2.53;2.00;;;;;;;;;;5053574;28;20210;-65
2023/09/27 13:32:14;;;;;;;3.85;2.40;;;;;;;;;;5049019;28;20588;-65
2023/09/27 13:34:42;;;;;;;5.88;2.00;;;;;;;;;;5047829;28;20223;-65
2023/09/27 13:37:10;;;;;;;6.78;2.30;;;;;;;;;;5048489;28;20286;-66
2023/09/27 13:39:39;;;;;;;3.08;1.90;;;;;;;;;;5048733;28;20211;-65
2023/09/27 13:42:09;;;;;;;2.88;2.17;;;;;;;;;;5042633;28;20235;-65
2023/09/27 13:44:36;;;;;;;2.00;1.70;;;;;;;;;;5050811;28;20192;-65
2023/09/27 13:47:03;;;;;;;2.00;1.90;;;;;;;;;;5046770;28;20210;-65
2023/09/27 13:49:31;;;;;;;2.58;2.03;;;;;;;;;;5045974;28;20263;-65
2023/09/27 13:51:59;;;;;;;1.90;1.80;;;;;;;;;;5054513;28;20195;-66
2023/09/27 13:54:26;;;;;;;4.90;1.90;;;;;;;;;;5053406;28;20213;-65
2023/09/27 13:56:53;;;;;;;2.00;1.60;;;;;;;;;;5049183;28;20206;-65
2023/09/27 13:59:20;;;;;;;2.13;1.60;;;;;;;;;;5055870;28;20225;-66
2023/09/27 14:01:48;;;;;;;2.10;1.90;;;;;;;;;;5052334;28;20213;-65
2023/09/27 14:04:15;;;;;;;4.50;1.88;;;;;;;;;;5056245;28;20268;-66
2023/09/27 14:06:42;;;;;;;3.92;1.92;;;;;;;;;;5068323;28;20202;-65
2023/09/27 14:09:10;;;;;;;4.53;1.95;;;;;;;;;;5058851;28;20210;-65
2023/09/27 14:11:37;;;;;;;4.10;2.05;;;;;;;;;;5056597;28;20214;-66
2023/09/27 14:14:05;;;;;;;5.25;2.15;;;;;;;;;;5055107;28;20212;-65
2023/09/27 14:16:32;;;;;;;2.15;1.95;;;;;;;;;;5056539;28;20211;-65
2023/09/27 14:18:59;;;;;;;2.08;1.88;;;;;;;;;;5068050;28;20214;-65
2023/09/27 14:21:26;;;;;;;2.75;1.80;;;;;;;;;;5056336;28;20215;-65
2023/09/27 14:23:53;;;;;;;3.28;2.10;;;;;;;;;;5061117;28;20211;-65
2023/09/27 14:26:21;;;;;;;3.38;2.10;;;;;;;;;;5053610;28;20239;-65
2023/09/27 14:28:49;;;;;;;2.42;2.13;;;;;;;;;;5054001;28;20425;-65
2023/09/27 14:31:17;;;;;;;1.98;1.88;;;;;;;;;;5054310;28;20295;-65
2023/09/27 14:33:44;;;;;;;1.85;1.75;;;;;;;;;;5052918;28;20219;-65
2023/09/27 14:36:12;;;;;;;3.00;1.95;;;;;;;;;;5052445;28;20215;-66
2023/09/27 14:38:39;;;;;;;2.08;1.83;;;;;;;;;;5056957;28;20198;-66
2023/09/27 14:41:09;;;;;;;3.30;2.10;;;;;;;;;;5060582;28;20199;-65
2023/09/27 14:43:39;;;;;;;3.10;1.75;;;;;;;;;;5054731;28;20192;-66
2023/09/27 14:46:10;;;;;;;2.75;2.00;;;;;;;;;;5054663;28;20214;-66
2023/09/27 14:48:37;;;;;;;2.97;1.60;;;;;;;;;;5056285;28;20199;-65
2023/09/27 14:51:04;;;;;;;2.13;1.92;;;;;;;;;;5059269;28;20261;-65